Time;durP1;ratioP1;P1;durP2;ratioP2;P2;SDS_P1;SDS_P2;PMS_P1;PMS_P2;Temp;Humidity;BMP_temperature;BMP_pressure;BME280_temperature;BME280_humidity;BME280_pressure;Samples;Min_cycle;Max_cycle;Signal;HPM_P1;HPM_P2
2023/01/25 00:02:06;;;;;;;46.25;32.90;;;;;;;5.97;54.08;103634.38;6181524;23;20013;-68
2023/01/25 00:04:32;;;;;;;48.53;33.63;;;;;;;5.95;54.10;103631.72;6181977;23;20020;-67
2023/01/25 00:06:59;;;;;;;48.28;34.80;;;;;;;5.93;54.14;103629.94;6182662;23;20017;-67
2023/01/25 00:09:26;;;;;;;50.35;35.22;;;;;;;5.91;54.26;103632.59;6182747;23;20013;-68
2023/01/25 00:11:55;;;;;;;48.35;35.05;;;;;;;5.91;54.09;103642.38;6181451;22;20013;-67
2023/01/25 00:14:22;;;;;;;49.17;36.05;;;;;;;5.92;53.97;103633.50;6182011;23;20024;-68
2023/01/25 00:16:48;;;;;;;49.17;34.42;;;;;;;5.92;54.17;103634.38;6182199;23;20398;-66
2023/01/25 00:19:15;;;;;;;48.40;34.92;;;;;;;5.92;54.00;103628.16;6181943;23;20018;-67
2023/01/25 00:21:42;;;;;;;50.33;33.72;;;;;;;5.91;54.12;103632.59;6181608;23;20462;-67
2023/01/25 00:24:10;;;;;;;52.05;36.65;;;;;;;5.92;54.15;103629.03;6181864;23;20504;-68
2023/01/25 00:26:38;;;;;;;48.75;34.42;;;;;;;5.93;54.06;103613.91;6181849;23;20021;-67
2023/01/25 00:29:11;;;;;;;49.90;36.08;;;;;;;5.92;54.07;103613.03;6155069;22;20021;-68
2023/01/25 00:31:59;;;;;;;52.70;35.70;;;;;;;5.92;54.10;103617.50;6181614;23;20313;-68
2023/01/25 00:34:28;;;;;;;48.03;35.72;;;;;;;5.93;53.98;103617.47;6155218;23;20348;-67
2023/01/25 00:37:21;;;;;;;51.03;35.70;;;;;;;5.89;54.03;103615.72;6181937;23;20017;-67
2023/01/25 00:39:48;;;;;;;54.00;37.75;;;;;;;5.87;54.44;103613.94;6181573;23;20088;-67
2023/01/25 00:42:17;;;;;;;52.13;35.53;;;;;;;5.87;54.10;103611.28;6181521;23;20017;-67
2023/01/25 00:44:44;;;;;;;56.08;38.00;;;;;;;5.83;54.04;103605.06;6181768;23;20096;-66
2023/01/25 00:47:11;;;;;;;56.75;38.47;;;;;;;5.81;54.07;103603.31;6155226;23;20021;-66
2023/01/25 00:49:39;;;;;;;54.65;38.22;;;;;;;5.82;54.01;103599.75;6181745;23;20070;-67
2023/01/25 00:52:06;;;;;;;59.05;39.05;;;;;;;5.81;54.03;103600.66;6155120;23;20021;-67
2023/01/25 00:54:33;;;;;;;57.55;37.67;;;;;;;5.79;53.97;103598.00;6155599;23;20055;-67
2023/01/25 00:56:59;;;;;;;52.78;37.45;;;;;;;5.79;54.03;103607.78;6155527;23;20014;-67
2023/01/25 00:59:26;;;;;;;56.33;38.15;;;;;;;5.78;54.11;103609.56;6155481;22;20104;-67
2023/01/25 01:01:54;;;;;;;58.03;39.08;;;;;;;5.79;54.10;103606.00;6155288;23;20086;-68
2023/01/25 01:04:23;;;;;;;57.60;38.17;;;;;;;5.82;54.11;103602.41;6181066;23;20013;-67
2023/01/25 01:06:52;;;;;;;61.92;41.95;;;;;;;5.81;54.06;103603.31;6181768;23;20019;-68
2023/01/25 01:09:20;;;;;;;60.83;40.72;;;;;;;5.78;54.12;103595.34;6181723;23;20013;-67
2023/01/25 01:11:46;;;;;;;59.25;42.40;;;;;;;5.79;54.07;103600.66;6155038;22;20347;-66
2023/01/25 01:14:13;;;;;;;57.35;39.42;;;;;;;5.80;54.14;103597.09;6155256;23;20483;-65
2023/01/25 01:16:40;;;;;;;62.30;41.35;;;;;;;5.80;54.13;103599.75;6155320;22;20159;-65
2023/01/25 01:19:08;;;;;;;60.35;41.30;;;;;;;5.78;54.21;103592.66;6181596;23;20017;-65
2023/01/25 01:21:35;;;;;;;62.85;41.58;;;;;;;5.73;54.09;103596.25;6181359;23;20009;-67
2023/01/25 01:24:02;;;;;;;59.60;40.00;;;;;;;5.72;54.18;103596.25;6181513;23;20024;-66
2023/01/25 01:26:28;;;;;;;63.30;42.03;;;;;;;5.70;54.18;103598.06;6154782;22;20359;-66
2023/01/25 01:28:57;;;;;;;59.35;40.42;;;;;;;5.69;54.12;103602.50;6181545;23;20009;-67
2023/01/25 01:31:24;;;;;;;55.92;38.10;;;;;;;5.66;53.87;103606.97;6154930;23;20448;-68
2023/01/25 01:34:11;;;;;;;60.03;38.67;;;;;;;5.62;54.10;103602.56;6181554;23;20339;-68
2023/01/25 01:36:38;;;;;;;60.45;38.95;;;;;;;5.61;54.13;103599.00;6155361;22;20395;-68
2023/01/25 01:39:04;;;;;;;62.53;40.83;;;;;;;5.60;54.30;103599.00;6155212;23;20013;-67
2023/01/25 01:41:31;;;;;;;64.32;41.05;;;;;;;5.60;54.15;103589.22;6181338;23;20013;-67
2023/01/25 01:43:58;;;;;;;67.50;43.05;;;;;;;5.62;54.25;103598.09;6181304;23;20024;-68
2023/01/25 01:46:34;;;;;;;66.05;42.22;;;;;;;5.61;54.20;103596.34;6155161;23;20040;-67
2023/01/25 01:49:25;;;;;;;67.80;43.17;;;;;;;5.60;54.19;103596.34;6181364;23;20021;-66
2023/01/25 01:52:09;;;;;;;62.92;39.92;;;;;;;5.61;54.20;103595.44;6154953;23;20067;-66
2023/01/25 01:54:44;;;;;;;63.30;41.22;;;;;;;5.62;54.17;103598.09;6154955;23;20493;-67
2023/01/25 01:57:33;;;;;;;62.00;40.30;;;;;;;5.64;54.18;103601.66;6155052;22;20056;-66
2023/01/25 02:00:05;;;;;;;61.22;40.22;;;;;;;5.65;54.21;103598.09;6154936;23;20451;-69
2023/01/25 02:02:44;;;;;;;64.53;42.10;;;;;;;5.66;54.26;103597.19;6154768;23;20024;-68
2023/01/25 02:05:21;;;;;;;65.88;41.85;;;;;;;5.66;54.21;103591.84;6181541;23;20120;-67
2023/01/25 02:07:52;;;;;;;64.88;41.40;;;;;;;5.69;54.25;103596.28;6181253;23;20092;-68
2023/01/25 02:10:19;;;;;;;68.70;43.83;;;;;;;5.66;54.36;103597.19;6181500;23;20014;-67
2023/01/25 02:12:47;;;;;;;67.22;43.55;;;;;;;5.67;54.12;103593.63;6154576;23;20386;-68
2023/01/25 02:15:14;;;;;;;67.50;43.00;;;;;;;5.69;54.16;103593.63;6155309;23;20021;-68
2023/01/25 02:17:41;;;;;;;69.13;43.58;;;;;;;5.69;54.15;103591.84;6182462;23;20084;-67
2023/01/25 02:20:36;;;;;;;66.57;42.95;;;;;;;5.68;54.21;103582.06;6182431;23;20103;-68
2023/01/25 02:23:03;;;;;;;66.28;43.30;;;;;;;5.69;54.29;103594.50;6182315;23;20447;-67
2023/01/25 02:25:30;;;;;;;66.15;42.33;;;;;;;5.71;54.19;103581.16;6156158;23;20388;-67
2023/01/25 02:28:03;;;;;;;67.00;42.55;;;;;;;5.71;54.20;103578.50;6182411;23;20017;-66
2023/01/25 02:30:30;;;;;;;61.88;41.58;;;;;;;5.71;54.13;103576.72;6156073;23;20017;-66
2023/01/25 02:32:56;;;;;;;70.13;42.63;;;;;;;5.73;54.16;103580.25;6182026;23;20013;-67
2023/01/25 02:35:43;;;;;;;64.57;42.13;;;;;;;5.73;54.01;103572.25;6155799;23;20100;-67
2023/01/25 02:38:16;;;;;;;68.97;43.20;;;;;;;5.73;54.07;103569.59;6156019;23;20017;-69
2023/01/25 02:41:01;;;;;;;67.72;42.33;;;;;;;5.72;54.07;103562.50;6131505;22;20101;-68
2023/01/25 02:43:33;;;;;;;73.60;44.60;;;;;;;5.71;54.11;103557.16;6155796;23;20017;-68
2023/01/25 02:46:14;;;;;;;70.95;45.20;;;;;;;5.68;54.16;103571.41;6155377;23;20369;-67
2023/01/25 02:48:43;;;;;;;72.18;46.03;;;;;;;5.66;54.08;103561.66;6156071;23;20025;-68
2023/01/25 02:51:11;;;;;;;73.68;45.65;;;;;;;5.63;54.02;103556.34;6155749;23;20021;-66
2023/01/25 02:53:39;;;;;;;77.63;47.70;;;;;;;5.58;54.03;103560.81;6155788;23;20447;-65
2023/01/25 02:56:06;;;;;;;73.72;45.65;;;;;;;5.51;53.97;103556.44;6131673;23;20025;-66
2023/01/25 02:58:33;;;;;;;81.68;47.60;;;;;;;5.43;53.99;103549.38;6156155;22;20451;-66
2023/01/25 03:01:00;;;;;;;72.28;45.53;;;;;;;5.38;53.99;103555.63;6182258;23;20017;-67
2023/01/25 03:03:27;;;;;;;77.60;47.15;;;;;;;5.34;54.04;103552.09;6182115;23;20374;-68
2023/01/25 03:05:54;;;;;;;76.05;46.97;;;;;;;5.33;54.23;103557.44;6182216;23;20014;-68
2023/01/25 03:08:20;;;;;;;81.68;48.63;;;;;;;5.33;54.13;103552.09;6182580;23;20021;-68
2023/01/25 03:10:50;;;;;;;78.70;48.38;;;;;;;5.32;53.94;103550.31;6155798;23;20021;-67
2023/01/25 03:13:16;;;;;;;80.55;49.53;;;;;;;5.31;54.23;103549.44;6155609;23;20384;-67
2023/01/25 03:15:44;;;;;;;77.47;47.10;;;;;;;5.30;54.13;103550.34;6155840;23;20028;-68
2023/01/25 03:18:10;;;;;;;76.30;46.25;;;;;;;5.32;54.25;103542.34;6156211;23;20021;-67
2023/01/25 03:20:37;;;;;;;81.80;48.83;;;;;;;5.36;54.34;103547.63;6155767;23;20056;-68
2023/01/25 03:23:03;;;;;;;79.75;48.83;;;;;;;5.40;54.37;103540.50;6181858;23;20021;-67
2023/01/25 03:25:30;;;;;;;82.82;50.30;;;;;;;5.42;54.30;103538.72;6182570;23;20017;-67
2023/01/25 03:28:07;;;;;;;77.15;47.78;;;;;;;5.45;54.25;103536.03;6155590;23;20021;-67
2023/01/25 03:30:34;;;;;;;77.13;47.92;;;;;;;5.46;54.33;103535.13;6182410;23;20017;-67
2023/01/25 03:33:01;;;;;;;76.90;48.22;;;;;;;5.45;54.17;103528.03;6155488;23;20027;-68
2023/01/25 03:35:27;;;;;;;86.03;50.25;;;;;;;5.44;54.28;103528.94;6155624;23;20242;-67
2023/01/25 03:37:54;;;;;;;82.20;49.17;;;;;;;5.43;54.40;103520.03;6155799;23;20474;-67
2023/01/25 03:40:22;;;;;;;80.82;50.13;;;;;;;5.42;54.40;103518.28;6155604;23;20018;-67
2023/01/25 03:42:49;;;;;;;78.00;49.28;;;;;;;5.45;54.39;103517.38;6181949;23;20021;-67
2023/01/25 03:45:16;;;;;;;82.63;49.90;;;;;;;5.47;54.38;103518.25;6155635;23;20112;-68
2023/01/25 03:47:42;;;;;;;80.72;49.10;;;;;;;5.51;54.35;103511.13;6131239;23;20022;-67
2023/01/25 03:50:10;;;;;;;81.20;48.90;;;;;;;5.54;54.34;103516.41;6155352;23;20092;-67
2023/01/25 03:52:40;;;;;;;80.45;49.90;;;;;;;5.57;54.31;103516.41;6155674;23;20020;-67
2023/01/25 03:55:29;;;;;;;82.65;49.30;;;;;;;5.60;54.28;103519.03;6181692;23;20036;-67
2023/01/25 03:57:56;;;;;;;78.50;48.72;;;;;;;5.59;54.22;103522.59;6155716;23;20045;-67
2023/01/25 04:00:24;;;;;;;81.28;49.03;;;;;;;5.58;54.25;103516.38;6155513;23;20068;-66
2023/01/25 04:02:57;;;;;;;80.45;49.53;;;;;;;5.59;54.22;103523.50;6155589;23;20170;-66
2023/01/25 04:05:26;;;;;;;85.25;50.42;;;;;;;5.57;54.15;103514.63;6155737;23;20055;-67
2023/01/25 04:07:52;;;;;;;81.00;48.80;;;;;;;5.56;54.27;103515.50;6155600;23;20021;-69
2023/01/25 04:10:27;;;;;;;80.85;51.20;;;;;;;5.56;54.37;103512.84;6155837;23;20024;-68
2023/01/25 04:12:54;;;;;;;81.45;49.15;;;;;;;5.57;54.35;103508.41;6155376;23;20027;-67
2023/01/25 04:15:22;;;;;;;80.50;49.47;;;;;;;5.57;54.21;103503.06;6155570;23;20056;-68
2023/01/25 04:17:49;;;;;;;80.78;48.83;;;;;;;5.53;54.15;103499.53;6155602;23;20065;-67
2023/01/25 04:20:22;;;;;;;76.95;47.97;;;;;;;5.50;54.22;103496.91;6155709;23;20104;-68
2023/01/25 04:22:48;;;;;;;82.50;48.45;;;;;;;5.47;54.20;103496.94;6156310;23;20104;-68
2023/01/25 04:25:17;;;;;;;82.25;49.45;;;;;;;5.45;54.18;103497.84;6155605;23;20025;-68
2023/01/25 04:27:49;;;;;;;83.78;50.42;;;;;;;5.40;54.18;103501.41;6132424;23;20045;-68
2023/01/25 04:30:16;;;;;;;80.00;48.53;;;;;;;5.37;54.22;103503.22;6155563;23;20071;-68
2023/01/25 04:32:44;;;;;;;82.55;50.30;;;;;;;5.31;54.23;103497.94;6155470;22;20021;-67
2023/01/25 04:35:19;;;;;;;84.82;50.45;;;;;;;5.25;53.96;103497.97;6155557;23;20024;-68
2023/01/25 04:37:57;;;;;;;80.90;48.65;;;;;;;5.23;54.28;103497.09;6155585;23;20041;-67
2023/01/25 04:40:28;;;;;;;78.93;45.97;;;;;;;5.26;54.31;103497.97;6232148;22;20347;-67
2023/01/25 04:42:55;;;;;;;79.32;49.13;;;;;;;5.28;54.34;103493.50;6285190;22;20066;-68
2023/01/25 04:45:24;;;;;;;77.32;45.33;;;;;;;5.29;54.38;103491.72;6285221;22;20056;-68
2023/01/25 04:48:01;;;;;;;78.38;47.08;;;;;;;5.24;54.28;103488.22;6285525;22;20517;-68
2023/01/25 04:50:29;;;;;;;78.53;46.33;;;;;;;5.17;54.08;103492.66;6285712;22;20066;-68
2023/01/25 04:52:57;;;;;;;75.90;46.80;;;;;;;5.11;54.32;103490.03;6285083;22;20074;-67
2023/01/25 04:55:25;;;;;;;77.13;47.03;;;;;;;5.07;54.29;103485.63;6285830;22;20047;-68
2023/01/25 04:57:54;;;;;;;75.15;44.67;;;;;;;5.04;54.31;103475.88;6285481;22;20021;-68
2023/01/25 05:00:21;;;;;;;79.15;47.03;;;;;;;4.98;54.36;103475.91;6285257;22;20451;-67
2023/01/25 05:02:48;;;;;;;78.50;46.83;;;;;;;4.96;54.37;103468.81;6284883;22;20378;-68
2023/01/25 05:05:15;;;;;;;77.90;46.25;;;;;;;4.98;54.39;103472.38;6181767;22;20017;-69
2023/01/25 05:07:44;;;;;;;75.30;46.30;;;;;;;4.97;54.36;103473.25;6285209;22;20013;-68
2023/01/25 05:10:11;;;;;;;74.50;44.22;;;;;;;4.93;54.32;103467.06;6259755;22;20035;-68
2023/01/25 05:12:48;;;;;;;78.38;47.15;;;;;;;4.86;54.30;103475.97;6261436;22;20021;-68
2023/01/25 05:15:15;;;;;;;82.82;49.00;;;;;;;4.82;54.31;103466.25;6285019;22;20048;-69
2023/01/25 05:17:42;;;;;;;77.95;47.13;;;;;;;4.81;54.40;103471.56;6285414;22;20104;-68
2023/01/25 05:20:09;;;;;;;80.30;48.35;;;;;;;4.84;54.37;103466.22;6181651;23;20336;-67
2023/01/25 05:22:36;;;;;;;81.53;49.38;;;;;;;4.88;54.36;103468.88;6285147;22;20025;-68
2023/01/25 05:26:59;;;;;;;79.82;48.60;;;;;;;4.93;54.47;103472.38;6284998;22;20021;-68
2023/01/25 05:27:54;;;;;;;82.38;50.40;;;;;;;4.99;54.56;103468.81;6285157;22;20023;-67
2023/01/25 05:30:38;;;;;;;80.93;48.75;;;;;;;5.02;54.38;103468.78;6285527;22;20043;-67
2023/01/25 05:33:19;;;;;;;84.70;48.97;;;;;;;5.04;54.53;103465.22;6284751;22;20020;-67
2023/01/25 05:35:46;;;;;;;82.95;48.40;;;;;;;5.05;54.51;103466.09;6284731;22;20550;-68
2023/01/25 05:38:13;;;;;;;82.53;51.00;;;;;;;5.08;54.51;103466.97;6285113;22;20067;-67
2023/01/25 05:40:41;;;;;;;88.03;53.00;;;;;;;5.07;54.42;103470.53;6284881;22;20052;-67
2023/01/25 05:43:08;;;;;;;85.53;51.20;;;;;;;5.06;54.49;103466.09;6183125;23;20021;-67
2023/01/25 05:45:35;;;;;;;85.97;50.67;;;;;;;5.07;54.50;103459.88;6264754;22;20061;-67
2023/01/25 05:48:02;;;;;;;85.53;51.38;;;;;;;5.06;54.42;103459.88;6285477;22;20024;-67
2023/01/25 05:50:29;;;;;;;85.25;52.25;;;;;;;5.01;54.40;103459.91;6180978;23;20058;-68
2023/01/25 05:52:59;;;;;;;96.25;55.55;;;;;;;4.99;54.48;103452.81;6284712;22;20037;-67
2023/01/25 05:55:27;;;;;;;94.97;54.55;;;;;;;4.97;54.37;103458.16;6284568;22;20074;-67
2023/01/25 05:57:57;;;;;;;92.18;54.72;;;;;;;4.97;54.44;103458.16;6285203;22;20043;-67
2023/01/25 06:00:23;;;;;;;91.38;54.55;;;;;;;4.98;54.26;103456.38;6284553;22;20017;-68
2023/01/25 06:02:50;;;;;;;93.05;55.42;;;;;;;4.99;54.40;103460.81;6180421;23;20096;-67
2023/01/25 06:05:21;;;;;;;94.35;56.35;;;;;;;4.96;54.44;103456.41;6284707;22;20021;-68
2023/01/25 06:07:48;;;;;;;96.60;55.72;;;;;;;4.98;54.52;103457.28;6284723;22;20559;-67
2023/01/25 06:10:16;;;;;;;96.20;54.53;;;;;;;5.01;54.52;103469.69;6284705;22;20089;-67
2023/01/25 06:12:45;;;;;;;99.95;56.25;;;;;;;5.03;54.55;103466.13;6284486;22;20021;-67
2023/01/25 06:15:12;;;;;;;97.40;55.00;;;;;;;5.00;54.50;103466.13;6284711;22;20013;-67
2023/01/25 06:17:39;;;;;;;96.57;55.88;;;;;;;5.00;54.56;103459.91;6285158;22;20104;-67
2023/01/25 06:20:24;;;;;;;96.20;55.08;;;;;;;5.02;54.45;103460.78;6180997;23;20517;-68
2023/01/25 06:23:11;;;;;;;109.93;60.97;;;;;;;5.05;54.62;103455.44;6181019;22;20021;-67
2023/01/25 06:25:37;;;;;;;107.90;61.45;;;;;;;5.07;54.57;103453.66;6181086;23;20009;-68
2023/01/25 06:28:04;;;;;;;105.85;60.92;;;;;;;5.10;54.42;103456.31;6180916;23;20091;-67
2023/01/25 06:30:31;;;;;;;106.20;60.65;;;;;;;5.11;54.56;103456.28;6284209;22;20313;-66
2023/01/25 06:32:58;;;;;;;108.40;60.83;;;;;;;5.13;54.56;103452.72;6284274;22;20017;-66
2023/01/25 06:35:24;;;;;;;109.15;60.92;;;;;;;5.12;54.47;103451.84;6180640;23;20020;-68
2023/01/25 06:37:54;;;;;;;115.90;64.20;;;;;;;5.10;54.47;103449.19;6180963;23;20017;-67
2023/01/25 06:40:21;;;;;;;112.93;63.28;;;;;;;5.06;54.42;103447.44;6284348;22;20440;-67
2023/01/25 06:42:48;;;;;;;112.82;62.65;;;;;;;5.02;54.40;103450.16;6180569;23;20449;-67
2023/01/25 06:45:14;;;;;;;119.60;66.95;;;;;;;4.98;54.34;103448.41;6181208;22;20017;-67
2023/01/25 06:47:41;;;;;;;114.53;61.58;;;;;;;4.96;54.38;103445.75;6180991;22;20017;-68
2023/01/25 06:50:09;;;;;;;115.40;62.72;;;;;;;4.97;54.49;103447.50;6181251;22;20016;-68
2023/01/25 06:52:36;;;;;;;112.63;63.30;;;;;;;5.00;54.47;103451.94;6180585;23;20043;-67
2023/01/25 06:55:04;;;;;;;123.00;66.80;;;;;;;5.03;54.61;103447.47;6180922;23;20017;-68
2023/01/25 06:57:31;;;;;;;116.93;63.03;;;;;;;5.04;54.54;103453.69;6180643;23;20020;-68
2023/01/25 06:59:58;;;;;;;121.95;62.17;;;;;;;5.05;54.64;103447.47;6180718;23;20021;-68
2023/01/25 07:02:24;;;;;;;115.38;63.53;;;;;;;5.06;54.57;103450.13;6181256;23;20020;-69
2023/01/25 07:04:51;;;;;;;117.38;64.47;;;;;;;5.08;54.71;103452.78;6182165;22;20096;-68
2023/01/25 07:07:18;;;;;;;119.35;65.25;;;;;;;5.12;54.56;103457.19;6182300;23;20440;-69
2023/01/25 07:09:45;;;;;;;117.35;64.68;;;;;;;5.15;54.75;103450.94;6182186;23;20017;-69
2023/01/25 07:12:12;;;;;;;115.43;62.17;;;;;;;5.21;54.63;103450.94;6181922;23;20100;-69
2023/01/25 07:14:38;;;;;;;112.40;62.78;;;;;;;5.23;54.63;103450.03;6182899;22;20020;-69
2023/01/25 07:17:05;;;;;;;119.43;65.07;;;;;;;5.25;54.66;103450.91;6182086;23;20454;-69
2023/01/25 07:19:31;;;;;;;115.15;63.97;;;;;;;5.25;54.49;103456.22;6182220;23;20021;-68
2023/01/25 07:21:58;;;;;;;111.72;61.75;;;;;;;5.22;54.57;103444.72;6285992;22;20416;-69
2023/01/25 07:24:25;;;;;;;116.25;62.47;;;;;;;5.21;54.57;103448.28;6182353;23;20025;-69
2023/01/25 07:26:52;;;;;;;113.63;62.40;;;;;;;5.22;54.34;103444.72;6182660;23;20458;-69
2023/01/25 07:29:20;;;;;;;114.95;63.45;;;;;;;5.23;54.51;103435.81;6286178;22;20075;-68
2023/01/25 07:31:47;;;;;;;112.57;62.80;;;;;;;5.24;54.47;103443.81;6181832;23;20491;-68
2023/01/25 07:34:15;;;;;;;120.65;65.22;;;;;;;5.25;54.64;103436.69;6182366;23;20016;-69
2023/01/25 07:36:45;;;;;;;121.60;64.70;;;;;;;5.25;54.49;103432.25;6285406;22;20035;-68
2023/01/25 07:39:12;;;;;;;124.35;66.60;;;;;;;5.21;54.44;103427.84;6182030;23;20017;-69
2023/01/25 07:41:39;;;;;;;116.72;63.85;;;;;;;5.20;54.61;103422.50;6181969;23;20017;-69
2023/01/25 07:44:11;;;;;;;112.53;61.50;;;;;;;5.21;54.58;103422.50;6155748;23;20017;-70
2023/01/25 07:46:42;;;;;;;115.32;63.80;;;;;;;5.23;54.45;103426.06;6155667;23;20055;-64
2023/01/25 07:49:09;;;;;;;110.40;60.63;;;;;;;5.24;54.66;103425.16;6181246;22;20017;-63
2023/01/25 07:51:35;;;;;;;112.28;62.20;;;;;;;5.25;54.60;103424.25;6181633;23;20037;-65
2023/01/25 07:54:03;;;;;;;115.43;64.80;;;;;;;5.27;54.71;103426.91;6182028;23;20017;-64
2023/01/25 07:56:37;;;;;;;114.85;62.28;;;;;;;5.26;54.68;103425.16;6182139;23;20086;-63
2023/01/25 07:59:03;;;;;;;117.78;64.05;;;;;;;5.25;54.50;103428.69;6155673;23;20044;-64
2023/01/25 08:01:33;;;;;;;115.18;63.75;;;;;;;5.26;54.56;103428.69;6153908;22;20455;-63
2023/01/25 08:04:00;;;;;;;117.88;63.55;;;;;;;5.28;54.47;103432.22;6180997;23;20041;-64
2023/01/25 08:06:34;;;;;;;114.90;65.40;;;;;;;5.26;54.47;103434.03;6181273;23;20018;-64
2023/01/25 08:09:11;;;;;;;119.82;65.32;;;;;;;5.24;54.39;103427.81;6181662;23;20088;-63
2023/01/25 08:11:37;;;;;;;114.97;62.38;;;;;;;5.20;54.36;103422.50;6181527;22;20010;-63
2023/01/25 08:14:04;;;;;;;116.05;62.17;;;;;;;5.18;54.30;103421.63;6180372;23;20017;-63
2023/01/25 08:16:31;;;;;;;112.82;62.65;;;;;;;5.22;54.39;103420.75;6155070;23;20021;-65
2023/01/25 08:18:59;;;;;;;120.53;65.22;;;;;;;5.25;54.52;103416.25;6181677;22;20075;-64
2023/01/25 08:21:30;;;;;;;117.93;64.30;;;;;;;5.30;54.38;103418.91;6182189;23;20017;-63
2023/01/25 08:24:02;;;;;;;113.63;63.00;;;;;;;5.31;54.51;103418.00;6181763;23;20070;-64
2023/01/25 08:26:29;;;;;;;118.55;65.53;;;;;;;5.35;54.48;103419.75;6181623;23;20028;-63
2023/01/25 08:28:57;;;;;;;118.45;63.60;;;;;;;5.37;54.52;103416.16;6181694;23;20047;-64
2023/01/25 08:31:29;;;;;;;110.90;61.92;;;;;;;5.37;54.46;103417.94;6182032;23;20333;-64
2023/01/25 08:33:56;;;;;;;115.47;62.45;;;;;;;5.38;54.23;103411.72;6181244;22;20436;-63
2023/01/25 08:36:24;;;;;;;120.50;63.05;;;;;;;5.42;54.42;103418.78;6181729;23;20017;-63
2023/01/25 08:38:56;;;;;;;118.30;65.47;;;;;;;5.39;54.36;103409.03;6181586;23;20020;-64
2023/01/25 08:41:23;;;;;;;115.38;62.25;;;;;;;5.36;54.26;103400.19;6155584;23;20084;-62
2023/01/25 08:43:52;;;;;;;112.20;62.53;;;;;;;5.31;54.27;103410.00;6180916;22;20036;-63
2023/01/25 08:46:20;;;;;;;116.55;63.47;;;;;;;5.30;54.35;103400.25;6155345;23;20032;-64
2023/01/25 08:48:51;;;;;;;115.78;61.65;;;;;;;5.31;54.44;103408.22;6180826;23;20088;-63
2023/01/25 08:51:18;;;;;;;111.45;61.50;;;;;;;5.32;54.33;103407.31;6180871;23;20040;-63
2023/01/25 08:53:44;;;;;;;122.72;65.32;;;;;;;5.33;54.39;103405.53;6181242;23;20021;-63
2023/01/25 08:56:13;;;;;;;116.40;61.65;;;;;;;5.32;54.26;103406.44;6181098;23;20028;-63
2023/01/25 08:58:45;;;;;;;118.93;64.30;;;;;;;5.32;54.30;103407.31;6181500;23;20440;-63
2023/01/25 09:01:13;;;;;;;119.50;62.65;;;;;;;5.35;54.45;103398.44;6155193;23;20024;-63
2023/01/25 09:03:42;;;;;;;118.45;63.40;;;;;;;5.35;54.34;103398.44;6181044;23;20017;-63
2023/01/25 09:06:10;;;;;;;115.05;64.32;;;;;;;5.37;54.26;103401.97;6181187;23;20051;-63
2023/01/25 09:08:50;;;;;;;115.63;62.90;;;;;;;5.37;54.30;103391.31;6181402;23;20036;-63
2023/01/25 09:11:19;;;;;;;114.28;59.50;;;;;;;5.40;54.27;103381.50;6181483;23;20017;-63
2023/01/25 09:13:47;;;;;;;114.43;63.65;;;;;;;5.43;54.36;103383.25;6180834;23;20100;-62
2023/01/25 09:16:17;;;;;;;114.55;62.35;;;;;;;5.42;54.28;103385.03;6181159;22;20021;-63
2023/01/25 09:18:44;;;;;;;121.03;62.55;;;;;;;5.39;54.30;103385.06;6155228;23;20020;-66
2023/01/25 09:21:16;;;;;;;118.13;61.42;;;;;;;5.37;54.31;103383.31;6180068;23;20016;-63
2023/01/25 09:23:43;;;;;;;117.28;63.70;;;;;;;5.35;54.15;103387.75;6179977;22;20099;-63
2023/01/25 09:26:30;;;;;;;111.85;59.95;;;;;;;5.32;54.26;103378.00;6181268;23;20070;-64
2023/01/25 09:28:58;;;;;;;116.82;63.70;;;;;;;5.30;54.17;103377.16;6154678;23;20025;-63
2023/01/25 09:31:25;;;;;;;118.93;62.72;;;;;;;5.28;54.17;103378.94;6181197;23;20074;-65
2023/01/25 09:34:14;;;;;;;118.85;61.15;;;;;;;5.26;54.22;103382.50;6180801;23;20016;-64
2023/01/25 09:36:41;;;;;;;112.88;61.25;;;;;;;5.26;54.23;103379.84;6155108;23;20486;-63
2023/01/25 09:39:11;;;;;;;114.90;62.50;;;;;;;5.26;54.33;103385.19;6180933;23;20021;-64
2023/01/25 09:42:17;;;;;;;113.18;60.80;;;;;;;5.25;54.18;103386.06;6155019;23;20014;-64
2023/01/25 09:44:58;;;;;;;114.25;60.25;;;;;;;5.25;54.26;103383.41;6154228;23;20032;-64
2023/01/25 09:47:32;;;;;;;117.00;61.80;;;;;;;5.24;54.18;103381.66;6181532;23;20017;-64
2023/01/25 09:50:06;;;;;;;118.47;58.83;;;;;;;5.21;54.22;103376.34;6155080;23;20021;-63
2023/01/25 09:52:56;;;;;;;116.07;62.20;;;;;;;5.16;54.25;103378.13;6181233;23;20088;-64
2023/01/25 09:55:26;;;;;;;118.13;61.58;;;;;;;5.15;54.38;103373.69;6181274;23;20017;-65
2023/01/25 09:57:55;;;;;;;124.90;64.03;;;;;;;5.13;54.18;103376.38;6181125;22;20094;-64
2023/01/25 10:00:34;;;;;;;117.53;62.20;;;;;;;5.11;54.21;103376.38;6154631;23;20021;-65
2023/01/25 10:03:49;;;;;;;116.78;62.22;;;;;;;5.11;54.29;103375.50;6155047;22;20017;-65
2023/01/25 10:06:16;;;;;;;113.30;58.55;;;;;;;5.15;54.17;103376.34;6169065;23;20029;-64
2023/01/25 10:09:01;;;;;;;115.13;61.30;;;;;;;5.15;54.41;103373.69;6155047;23;20096;-65
2023/01/25 10:11:30;;;;;;;111.82;60.80;;;;;;;5.13;54.22;103367.50;6154975;23;20013;-65
2023/01/25 10:13:58;;;;;;;117.40;63.00;;;;;;;5.13;54.31;103372.81;6154618;23;20100;-65
2023/01/25 10:16:31;;;;;;;112.65;61.03;;;;;;;5.13;54.21;103367.50;6154167;23;20052;-64
2023/01/25 10:19:04;;;;;;;111.63;60.00;;;;;;;5.11;54.20;103365.72;6154689;23;20100;-65
2023/01/25 10:21:41;;;;;;;116.70;61.45;;;;;;;5.10;54.28;103363.97;6154528;23;20017;-64
2023/01/25 10:24:26;;;;;;;122.85;62.97;;;;;;;5.09;54.31;103356.88;6154233;22;20017;-64
2023/01/25 10:27:02;;;;;;;117.38;60.67;;;;;;;5.08;54.33;103355.09;6154523;23;20374;-65
2023/01/25 10:29:35;;;;;;;112.80;61.40;;;;;;;5.10;54.37;103355.97;6130411;23;20017;-65
2023/01/25 10:32:15;;;;;;;119.60;60.53;;;;;;;5.12;54.39;103353.28;6154016;23;20021;-65
2023/01/25 10:34:49;;;;;;;111.25;58.72;;;;;;;5.15;54.41;103350.59;6154804;23;20020;-65
2023/01/25 10:37:35;;;;;;;120.20;60.65;;;;;;;5.18;54.55;103347.03;6182073;23;20041;-65
2023/01/25 10:40:10;;;;;;;117.68;59.95;;;;;;;5.12;54.36;103337.31;6155704;22;20017;-65
2023/01/25 10:42:48;;;;;;;114.80;59.67;;;;;;;5.08;54.32;103330.25;6155437;23;20016;-65
2023/01/25 10:45:23;;;;;;;113.15;58.80;;;;;;;5.05;54.37;103322.28;6155452;23;20021;-65
2023/01/25 10:48:02;;;;;;;117.97;62.28;;;;;;;5.04;54.41;103324.06;6156220;23;20086;-65
2023/01/25 10:50:38;;;;;;;109.82;60.28;;;;;;;5.05;54.40;103315.19;6156146;23;20180;-64
2023/01/25 10:53:32;;;;;;;110.05;58.15;;;;;;;5.02;54.38;103304.56;6155844;23;20048;-65
2023/01/25 10:56:17;;;;;;;113.17;59.47;;;;;;;4.95;54.21;103300.19;6155392;23;20052;-65
2023/01/25 10:58:47;;;;;;;109.35;56.33;;;;;;;4.97;54.41;103294.84;6182341;23;20271;-64
2023/01/25 11:01:27;;;;;;;116.63;59.78;;;;;;;4.99;54.53;103287.72;6181974;23;20025;-65
2023/01/25 11:03:55;;;;;;;111.60;58.33;;;;;;;5.06;54.65;103279.66;6131527;23;20070;-64
2023/01/25 11:06:34;;;;;;;111.93;57.30;;;;;;;5.10;54.53;103270.75;6181815;23;20023;-65
2023/01/25 11:09:20;;;;;;;110.63;58.03;;;;;;;5.13;54.55;103271.59;6181844;23;20051;-64
2023/01/25 11:12:10;;;;;;;110.38;57.08;;;;;;;5.10;54.46;103268.06;6181744;23;20460;-65
2023/01/25 11:14:37;;;;;;;113.07;57.80;;;;;;;5.09;54.49;103262.75;6163122;23;20104;-65
2023/01/25 11:17:05;;;;;;;111.43;56.15;;;;;;;5.10;54.56;103256.53;6181485;23;20329;-64
2023/01/25 11:19:31;;;;;;;111.20;58.80;;;;;;;5.08;54.40;103258.34;6182064;23;20340;-64
2023/01/25 11:22:00;;;;;;;107.70;57.30;;;;;;;5.07;54.46;103260.13;6181539;23;20428;-64
2023/01/25 11:24:29;;;;;;;114.45;59.63;;;;;;;5.05;54.38;103251.25;6181516;23;20021;-63
2023/01/25 11:27:20;;;;;;;112.53;57.08;;;;;;;5.02;54.51;103247.75;6180968;23;20343;-65
2023/01/25 11:30:15;;;;;;;109.30;57.05;;;;;;;5.06;54.54;103231.72;6160544;23;20017;-65
2023/01/25 11:32:42;;;;;;;105.10;54.45;;;;;;;5.14;54.60;103222.75;6181607;23;20064;-65